createdAt,value
2022-10-04T00:04:34.638Z,90.91
2022-10-04T00:09:44.390Z,90.86
2022-10-04T00:14:50.850Z,91.14
2022-10-04T00:19:55.470Z,91.26
2022-10-04T00:25:22.640Z,91.86
2022-10-04T00:30:27.068Z,90.10
2022-10-04T00:35:49.437Z,91.00
2022-10-04T00:40:57.084Z,92.31
2022-10-04T00:46:06.083Z,91.81
2022-10-04T00:51:16.286Z,90.95
2022-10-04T00:56:25.303Z,89.83
2022-10-04T01:01:30.344Z,91.34
2022-10-04T01:06:34.937Z,90.00
2022-10-04T01:11:42.436Z,89.06
2022-10-04T01:16:47.496Z,91.35
2022-10-04T01:22:04.124Z,90.13
2022-10-04T01:27:35.629Z,89.73
2022-10-04T01:32:40.251Z,89.58
2022-10-04T01:37:43.009Z,88.70
2022-10-04T01:42:51.455Z,87.65
2022-10-04T01:47:58.020Z,89.97
2022-10-04T01:53:09.446Z,94.06
2022-10-04T01:58:18.931Z,90.06
2022-10-04T02:03:29.235Z,95.86
2022-10-04T02:08:34.799Z,100.00
2022-10-04T02:13:41.906Z,100.00
2022-10-04T02:18:46.560Z,100.00
2022-10-04T02:23:49.793Z,100.00
2022-10-04T02:28:53.853Z,100.00
2022-10-04T02:33:59.357Z,100.00
2022-10-04T02:39:05.700Z,100.00
2022-10-04T02:44:17.624Z,100.00
2022-10-04T02:49:28.659Z,100.00
2022-10-04T02:54:39.287Z,100.00
2022-10-04T02:59:43.217Z,100.00
2022-10-04T03:04:45.862Z,100.00
2022-10-04T03:09:49.127Z,100.00
2022-10-04T03:14:54.448Z,100.00
2022-10-04T03:19:57.936Z,100.00
2022-10-04T03:25:01.564Z,100.00
2022-10-04T03:30:06.725Z,100.00
2022-10-04T03:35:29.528Z,100.00
2022-10-04T03:40:34.139Z,100.00
2022-10-04T03:45:38.077Z,100.00
2022-10-04T03:50:47.902Z,100.00
2022-10-04T03:55:50.658Z,100.00
2022-10-04T04:01:07.068Z,100.00
2022-10-04T04:06:16.278Z,100.00
2022-10-04T04:11:23.475Z,100.00
2022-10-04T04:16:28.377Z,100.00
2022-10-04T04:21:32.838Z,100.00
2022-10-04T04:26:40.269Z,100.00
2022-10-04T04:31:52.412Z,100.00
2022-10-04T04:37:00.112Z,100.00
2022-10-04T04:42:07.101Z,100.00
2022-10-04T04:47:19.293Z,99.00
2022-10-04T04:52:27.630Z,100.00
2022-10-04T04:57:30.480Z,98.16
2022-10-04T05:02:36.596Z,94.56
2022-10-04T05:07:39.297Z,95.17
2022-10-04T05:12:41.994Z,93.97
2022-10-04T05:17:46.199Z,93.76
2022-10-04T05:22:51.398Z,94.07
2022-10-04T05:27:55.598Z,97.90
2022-10-04T05:33:02.977Z,96.87
2022-10-04T05:38:10.550Z,96.64
2022-10-04T05:43:27.360Z,95.78
2022-10-04T05:48:31.627Z,99.41
2022-10-04T05:53:35.651Z,99.14
2022-10-04T05:58:53.752Z,100.00
2022-10-04T06:04:12.766Z,96.90
2022-10-04T06:09:31.552Z,95.95
2022-10-04T06:14:50.108Z,94.46
2022-10-04T06:20:14.780Z,92.40
2022-10-04T06:25:24.645Z,96.20
2022-10-04T06:30:34.403Z,96.88
2022-10-04T06:36:08.658Z,96.34
2022-10-04T06:41:40.499Z,93.91
2022-10-04T06:46:49.067Z,93.08
2022-10-04T06:52:25.096Z,91.04
2022-10-04T06:57:47.612Z,89.65
2022-10-04T07:02:53.155Z,92.39
2022-10-04T07:08:07.740Z,90.73
2022-10-04T07:13:41.341Z,89.45
2022-10-04T07:18:51.654Z,89.89
2022-10-04T07:23:58.857Z,90.50
2022-10-04T07:29:23.550Z,91.56
2022-10-04T07:34:30.774Z,91.37
2022-10-04T07:39:44.598Z,88.89
2022-10-04T07:45:11.358Z,88.92
2022-10-04T07:50:25.606Z,88.51
2022-10-04T07:55:33.156Z,87.74
2022-10-04T08:00:48.611Z,87.76
2022-10-04T08:06:00.143Z,84.92
2022-10-04T08:11:18.012Z,84.36
2022-10-04T08:16:35.905Z,86.84
2022-10-04T08:21:47.033Z,86.63
2022-10-04T08:26:58.720Z,87.45
2022-10-04T08:32:13.091Z,87.98
2022-10-04T08:37:30.204Z,87.79
2022-10-04T08:43:20.653Z,85.45
2022-10-04T08:48:46.339Z,85.13
2022-10-04T08:54:35.539Z,83.05
2022-10-04T09:00:09.800Z,83.15
2022-10-04T09:05:52.059Z,81.91
2022-10-04T09:11:22.078Z,84.00
2022-10-04T09:16:36.552Z,79.65
2022-10-04T09:21:51.144Z,76.54
2022-10-04T09:26:57.993Z,77.21
2022-10-04T09:32:33.325Z,74.55
2022-10-04T09:38:01.665Z,78.84
2022-10-04T09:43:27.694Z,77.45
2022-10-04T09:48:38.051Z,75.62
2022-10-04T09:53:54.914Z,75.55
2022-10-04T09:59:37.522Z,76.33
2022-10-04T10:04:49.343Z,77.25
2022-10-04T10:10:19.826Z,74.04
2022-10-04T10:15:31.265Z,67.84
2022-10-04T10:20:50.721Z,59.85
2022-10-04T10:26:32.101Z,54.96
2022-10-04T10:31:56.615Z,48.58
2022-10-04T10:37:11.815Z,50.41
2022-10-04T10:42:50.300Z,47.75
2022-10-04T10:48:01.757Z,48.53
2022-10-04T10:53:28.938Z,50.34
2022-10-04T10:59:01.758Z,43.50
2022-10-04T11:04:26.649Z,41.81
2022-10-04T11:09:35.284Z,56.43
2022-10-04T11:14:56.448Z,54.29
2022-10-04T11:20:35.355Z,54.38
2022-10-04T11:25:58.306Z,53.24
2022-10-04T11:31:41.917Z,47.27
2022-10-04T11:37:02.976Z,41.42
2022-10-04T11:42:22.211Z,39.37
2022-10-04T11:47:43.123Z,37.47
2022-10-04T11:53:09.311Z,37.01
2022-10-04T11:58:21.210Z,39.03
2022-10-04T12:03:48.935Z,38.81
2022-10-04T12:09:05.540Z,36.66
2022-10-04T12:14:24.485Z,33.82
2022-10-04T12:19:41.683Z,39.57
2022-10-04T12:24:59.685Z,37.95
2022-10-04T12:30:24.085Z,38.96
2022-10-04T12:35:34.795Z,38.76
2022-10-04T12:40:44.646Z,39.48
2022-10-04T12:46:06.461Z,40.08
2022-10-04T12:51:23.762Z,36.04
2022-10-04T12:56:45.926Z,40.03
2022-10-04T13:01:57.665Z,36.79
2022-10-04T13:07:19.364Z,39.29
2022-10-04T13:12:38.961Z,36.64
2022-10-04T13:17:50.458Z,36.85
2022-10-04T13:23:00.182Z,34.76
2022-10-04T13:28:07.091Z,36.02
2022-10-04T13:33:26.884Z,37.70
2022-10-04T13:39:11.604Z,45.15
2022-10-04T13:44:29.736Z,40.65
2022-10-04T13:49:52.263Z,37.96
2022-10-04T13:55:30.811Z,35.76
2022-10-04T14:00:53.956Z,35.06
2022-10-04T14:06:20.468Z,35.60
2022-10-04T14:11:44.538Z,34.30
2022-10-04T14:17:25.354Z,33.31
2022-10-04T14:23:02.909Z,34.10
2022-10-04T14:28:33.329Z,35.53
2022-10-04T14:33:55.107Z,37.09
2022-10-04T14:39:19.985Z,36.82
2022-10-04T14:44:54.110Z,39.90
2022-10-04T14:50:09.493Z,39.98
2022-10-04T14:55:26.409Z,41.71
2022-10-04T15:00:35.130Z,45.73
2022-10-04T15:05:46.147Z,48.97
2022-10-04T15:10:54.079Z,52.68
2022-10-04T15:16:11.458Z,54.45
2022-10-04T15:21:47.575Z,54.00
2022-10-04T15:27:16.949Z,57.37
2022-10-04T15:32:29.793Z,56.42
2022-10-04T15:37:44.279Z,57.71
2022-10-04T15:43:13.237Z,57.71
2022-10-04T15:48:33.002Z,58.94
2022-10-04T15:53:59.705Z,60.88
2022-10-04T15:59:31.728Z,62.23
2022-10-04T16:04:50.206Z,61.24
2022-10-04T16:10:00.980Z,63.38
2022-10-04T16:15:20.165Z,62.82
2022-10-04T16:20:40.611Z,63.22
2022-10-04T16:25:44.093Z,64.11
2022-10-04T16:31:11.176Z,65.57
2022-10-04T16:36:17.562Z,65.47
2022-10-04T16:41:34.981Z,68.30
2022-10-04T16:46:46.238Z,68.75
2022-10-04T16:52:17.109Z,67.15
2022-10-04T16:57:23.312Z,66.00
2022-10-04T17:02:49.222Z,66.47
2022-10-04T17:08:17.520Z,67.90
2022-10-04T17:13:26.752Z,66.72
2022-10-04T17:18:44.938Z,70.05
2022-10-04T17:24:03.530Z,67.04
2022-10-04T17:29:32.561Z,67.25
2022-10-04T17:34:54.615Z,67.30
2022-10-04T17:40:10.242Z,68.11
2022-10-04T17:45:41.667Z,69.22
2022-10-04T17:51:15.636Z,68.50
2022-10-04T17:56:30.302Z,69.40
2022-10-04T18:01:37.344Z,69.23
2022-10-04T18:06:49.221Z,69.49
2022-10-04T18:11:56.930Z,70.78
2022-10-04T18:17:05.649Z,71.83
2022-10-04T18:22:15.716Z,71.75
2022-10-04T18:27:22.529Z,70.94
2022-10-04T18:32:38.128Z,71.13
2022-10-04T18:37:42.339Z,71.84
2022-10-04T18:42:52.220Z,71.92
2022-10-04T18:47:56.114Z,72.65
2022-10-04T18:53:21.530Z,72.66
2022-10-04T18:58:51.997Z,72.35
2022-10-04T19:04:01.051Z,73.32
2022-10-04T19:09:18.040Z,73.80
2022-10-04T19:14:30.871Z,74.38
2022-10-04T19:19:43.142Z,74.14
2022-10-04T19:25:01.927Z,76.46
2022-10-04T19:30:16.436Z,75.64
2022-10-04T19:35:31.378Z,76.33
2022-10-04T19:40:48.483Z,79.76
2022-10-04T19:46:13.599Z,78.37
2022-10-04T19:51:28.302Z,78.13
2022-10-04T19:56:37.354Z,79.57
2022-10-04T20:01:40.102Z,79.76
2022-10-04T20:06:49.790Z,80.08
2022-10-04T20:11:54.629Z,85.66
2022-10-04T20:17:04.581Z,85.85
2022-10-04T20:22:30.337Z,84.01
2022-10-04T20:28:03.869Z,89.43
2022-10-04T20:33:06.478Z,86.21
2022-10-04T20:38:32.140Z,85.64
2022-10-04T20:43:54.802Z,86.00
2022-10-04T20:48:57.442Z,88.11
2022-10-04T20:54:01.483Z,92.72
2022-10-04T20:59:05.623Z,90.02
2022-10-04T21:04:15.341Z,95.93
2022-10-04T21:09:18.279Z,97.48
2022-10-04T21:14:26.235Z,91.49
2022-10-04T21:19:46.635Z,89.69
2022-10-04T21:24:55.361Z,87.62
2022-10-04T21:30:00.557Z,89.41
2022-10-04T21:35:03.666Z,87.53
2022-10-04T21:40:08.250Z,87.04
2022-10-04T21:45:12.371Z,89.93
2022-10-04T21:50:15.759Z,89.75
2022-10-04T21:55:18.356Z,89.05
2022-10-04T22:00:23.114Z,91.36
2022-10-04T22:05:28.434Z,88.93
2022-10-04T22:10:31.109Z,86.48
2022-10-04T22:15:35.061Z,85.39
2022-10-04T22:20:38.064Z,85.93
2022-10-04T22:25:41.298Z,84.80
2022-10-04T22:30:45.265Z,85.67
2022-10-04T22:35:47.836Z,85.70
2022-10-04T22:40:50.371Z,84.24
2022-10-04T22:45:55.812Z,83.00
2022-10-04T22:50:58.974Z,83.46
2022-10-04T22:56:01.562Z,83.28
2022-10-04T23:01:13.098Z,83.89
2022-10-04T23:06:16.691Z,84.18
2022-10-04T23:11:19.318Z,84.90
2022-10-04T23:16:24.100Z,84.89
2022-10-04T23:21:29.646Z,86.86
2022-10-04T23:26:38.112Z,87.02
2022-10-04T23:31:42.154Z,96.04
2022-10-04T23:36:45.544Z,96.72
2022-10-04T23:41:48.382Z,100.00
2022-10-04T23:46:52.713Z,100.00
2022-10-04T23:52:00.336Z,100.00
2022-10-04T23:57:02.967Z,100.00
